EGPK

Glasgow Prestwick Airport

Glasgow, United Kingdom
METAR EGPK 242350Z 22008KT 9000 -RA SCT015 08/07 Q1005
Observed Flight Rules
Apr-24 @ 23:50 UTC (37 minutes ago) Visual Flight Rules
Wind Visibility Clouds Conditions
220° at 8 knots 8,996 meters
  • Scattered at 1,500' AGL
  • Light Rain
Temperatures Readings
Current 8°C / 46°F
Dewpoint 7°C / 45°F
Humidity 93%
Altimeter 29.68" Hg
Pressure 1005 hPa
Elevation 20
METAR EGPK 242350Z 22008KT 9000 -RA SCT015 08/07 Q1005
Observed Flight Rules
Apr-24 @ 23:50 UTC
(37 minutes ago)
VFR
Wind Visibility
220° at 8 knots 8,996 meters
Clouds
  • Scattered at 1,500' AGL
Conditions
  • Light Rain
Temperature Dewpoint
8°C / 46°F 7°C / 45°F
Humidity Altimeter Pressure
93% 29.68" Hg 1005 hPa